Time;durP1;ratioP1;P1;durP2;ratioP2;P2;SDS_P1;SDS_P2;PMS_P1;PMS_P2;Temp;Humidity;BMP_temperature;BMP_pressure;BME280_temperature;BME280_humidity;BME280_pressure;Samples;Min_cycle;Max_cycle;Signal;HPM_P1;HPM_P2
2020/12/13 00:02:16;;;;;;;32.95;18.25;;;154.10;2176.00;;;;;;5097283;28;20035;-68
2020/12/13 00:04:42;;;;;;;29.02;17.75;;;154.20;2150.40;;;;;;5097012;28;20411;-68
2020/12/13 00:07:08;;;;;;;29.63;15.68;;;154.50;2124.80;;;;;;5096704;28;20111;-68
2020/12/13 00:09:34;;;;;;;29.83;16.67;;;154.50;2124.80;;;;;;5097259;28;20031;-69
2020/12/13 00:12:04;;;;;;;30.35;14.23;;;154.50;2124.80;;;;;;5096941;28;20024;-68
2020/12/13 00:14:30;;;;;;;25.20;13.40;;;154.30;2150.40;;;;;;5097234;28;20107;-69
2020/12/13 00:16:56;;;;;;;21.17;12.60;;;154.50;2124.80;;;;;;5096805;28;20024;-69
2020/12/13 00:19:22;;;;;;;22.88;12.02;;;154.50;2124.80;;;;;;5096937;28;20024;-68
2020/12/13 00:21:52;;;;;;;18.85;10.25;;;154.40;2150.40;;;;;;5096582;28;20021;-68
2020/12/13 00:24:21;;;;;;;;;;;154.30;2150.40;;;;;;5097298;28;20115;-69
2020/12/13 00:26:47;;;;;;;23.10;11.70;;;154.30;2150.40;;;;;;5099474;28;19951;-69
2020/12/13 00:29:15;;;;;;;26.73;16.38;;;154.20;2176.00;;;;;;5100631;28;20024;-68
2020/12/13 00:31:41;;;;;;;26.92;17.33;;;154.40;2150.40;;;;;;5100614;28;20016;-69
2020/12/13 00:34:07;;;;;;;26.00;14.80;;;154.20;2150.40;;;;;;5100295;28;20024;-69
2020/12/13 00:36:34;;;;;;;22.55;12.93;;;154.10;2176.00;;;;;;5100425;28;20031;-69
2020/12/13 00:38:59;;;;;;;29.73;17.58;;;154.10;2176.00;;;;;;5100475;28;20062;-68
2020/12/13 00:41:25;;;;;;;38.45;21.75;;;154.20;2150.40;;;;;;5100009;28;20087;-68
2020/12/13 00:43:51;;;;;;;34.15;18.20;;;154.30;2150.40;;;;;;5100700;28;20028;-69
2020/12/13 00:46:17;;;;;;;42.70;24.00;;;154.50;2124.80;;;;;;5099710;28;20022;-68
2020/12/13 00:48:43;;;;;;;25.58;14.77;;;154.20;2150.40;;;;;;5100035;28;20410;-68
2020/12/13 00:51:09;;;;;;;40.63;22.88;;;154.00;2176.00;;;;;;5100480;28;20504;-70
2020/12/13 00:53:34;;;;;;;49.72;26.45;;;154.10;2176.00;;;;;;5100481;28;20024;-69
2020/12/13 00:56:00;;;;;;;37.35;20.90;;;154.20;2150.40;;;;;;5100115;28;20308;-68
2020/12/13 00:58:26;;;;;;;46.15;25.45;;;154.50;2124.80;;;;;;5081578;28;20067;-69
2020/12/13 01:00:52;;;;;;;77.85;37.58;;;154.50;2124.80;;;;;;5100271;28;20107;-69
2020/12/13 01:03:18;;;;;;;39.92;20.13;;;154.50;2099.20;;;;;;5099712;28;20027;-69
2020/12/13 01:05:43;;;;;;;40.35;21.17;;;179.20;2099.20;;;;;;5099948;28;20498;-68
2020/12/13 01:08:09;;;;;;;20.55;10.38;;;179.20;2099.20;;;;;;5099903;28;20024;-68
2020/12/13 01:10:35;;;;;;;27.40;14.32;;;154.10;2150.40;;;;;;5099549;28;20028;-68
2020/12/13 01:13:01;;;;;;;11.43;6.13;;;154.20;2150.40;;;;;;5099492;28;20020;-68
2020/12/13 01:15:27;;;;;;;10.80;5.85;;;154.10;2176.00;;;;;;5099250;28;20496;-68
2020/12/13 01:17:56;;;;;;;13.40;6.85;;;154.30;2150.40;;;;;;5099637;28;20024;-69
2020/12/13 01:20:21;;;;;;;12.25;7.43;;;154.20;2150.40;;;;;;5100070;28;20036;-67
2020/12/13 01:22:47;;;;;;;12.90;6.20;;;154.30;2150.40;;;;;;5099783;28;20035;-68
2020/12/13 01:25:13;;;;;;;11.25;6.72;;;154.20;2124.80;;;;;;5099647;28;20031;-68
2020/12/13 01:27:39;;;;;;;16.10;8.75;;;154.20;2150.40;;;;;;5099839;28;20024;-68
2020/12/13 01:30:07;;;;;;;19.70;11.05;;;154.40;2124.80;;;;;;5099242;28;20024;-68
2020/12/13 01:32:40;;;;;;;24.15;13.00;;;154.40;2150.40;;;;;;5099170;28;20074;-67
2020/12/13 01:35:08;;;;;;;24.98;15.82;;;154.30;2150.40;;;;;;5099659;28;20028;-68
2020/12/13 01:37:34;;;;;;;19.27;10.73;;;154.40;2124.80;;;;;;5098980;28;20019;-67
2020/12/13 01:40:00;;;;;;;19.85;11.30;;;179.20;2099.20;;;;;;5099042;28;20028;-68
2020/12/13 01:42:26;;;;;;;18.80;11.35;;;154.50;2124.80;;;;;;5099469;28;20059;-67
2020/12/13 01:44:51;;;;;;;18.50;10.45;;;154.40;2124.80;;;;;;5099240;28;20059;-67
2020/12/13 01:47:21;;;;;;;18.45;11.10;;;154.30;2150.40;;;;;;5099409;28;20063;-67
2020/12/13 01:49:48;;;;;;;14.57;8.95;;;154.30;2150.40;;;;;;5099135;28;20052;-67
2020/12/13 01:55:07;;;;;;;21.95;12.07;;;179.20;2124.80;;;;;;5099078;28;20523;-68
2020/12/13 01:57:44;;;;;;;23.17;12.77;;;179.40;2099.20;;;;;;5098297;28;20122;-68
2020/12/13 02:00:12;;;;;;;25.90;14.30;;;154.50;2124.80;;;;;;5099052;28;20377;-68
2020/12/13 02:02:47;;;;;;;20.98;12.27;;;154.20;2176.00;;;;;;5099102;28;20024;-68
2020/12/13 02:05:14;;;;;;;13.85;7.90;;;154.10;2176.00;;;;;;5098748;28;20118;-67
2020/12/13 02:07:42;;;;;;;19.98;11.25;;;154.20;2176.00;;;;;;5098949;28;20028;-67
2020/12/13 02:10:11;;;;;;;27.52;19.23;;;154.10;2176.00;;;;;;5098641;28;20028;-67
2020/12/13 02:12:38;;;;;;;11.85;6.07;;;154.30;2150.40;;;;;;5098648;28;20419;-68
2020/12/13 02:15:06;;;;;;;8.30;5.47;;;154.40;2124.80;;;;;;5098350;28;20028;-68
2020/12/13 02:17:34;;;;;;;9.35;5.82;;;154.50;2124.80;;;;;;5098782;28;20027;-68
2020/12/13 02:20:11;;;;;;;12.40;5.85;;;154.40;2124.80;;;;;;5098236;28;20110;-68
2020/12/13 02:22:41;;;;;;;14.43;8.18;;;154.40;2124.80;;;;;;5098714;28;20077;-69
2020/12/13 02:25:11;;;;;;;16.27;8.25;;;154.50;2124.80;;;;;;5098176;28;20028;-68
2020/12/13 02:27:37;;;;;;;18.40;10.10;;;154.30;2150.40;;;;;;5098695;28;20027;-67
2020/12/13 02:30:05;;;;;;;18.42;10.38;;;154.20;2150.40;;;;;;5098309;28;20114;-68
2020/12/13 02:32:31;;;;;;;12.93;8.18;;;154.20;2150.40;;;;;;5098028;28;20028;-68
2020/12/13 02:34:57;;;;;;;13.60;8.38;;;154.00;2201.60;;;;;;5098503;28;20023;-68
2020/12/13 02:37:22;;;;;;;15.15;8.75;;;153.80;2227.20;;;;;;5098379;28;20032;-68
2020/12/13 02:39:49;;;;;;;17.40;10.13;;;153.90;2201.60;;;;;;5097889;28;20111;-67
2020/12/13 02:42:15;;;;;;;20.77;12.75;;;153.80;2227.20;;;;;;5098256;28;20077;-68
2020/12/13 02:44:41;;;;;;;19.10;10.30;;;154.10;2201.60;;;;;;5098080;28;20114;-68
2020/12/13 02:47:06;;;;;;;16.77;10.63;;;154.00;2201.60;;;;;;5097663;28;20124;-67
2020/12/13 02:49:33;;;;;;;25.73;12.15;;;154.10;2201.60;;;;;;5097320;28;20330;-68
2020/12/13 02:51:59;;;;;;;23.50;13.85;;;154.20;2176.00;;;;;;5097568;28;20028;-68
2020/12/13 02:54:25;;;;;;;18.33;11.20;;;154.40;2150.40;;;;;;5097875;28;20020;-67
2020/12/13 02:56:51;;;;;;;16.50;9.88;;;154.40;2150.40;;;;;;5098060;28;20067;-68
2020/12/13 02:59:16;;;;;;;14.25;8.98;;;154.40;2150.40;;;;;;5097723;28;20031;-69
2020/12/13 03:01:42;;;;;;;12.57;8.02;;;154.40;2176.00;;;;;;5097505;28;20078;-68
2020/12/13 03:04:08;;;;;;;13.98;7.90;;;154.40;2176.00;;;;;;5098030;28;20403;-68
2020/12/13 03:06:34;;;;;;;20.90;13.73;;;154.50;2150.40;;;;;;5097463;28;20060;-69
2020/12/13 03:08:59;;;;;;;12.07;8.32;;;154.50;2150.40;;;;;;5097433;28;20403;-68
2020/12/13 03:11:25;;;;;;;15.55;8.75;;;179.20;2124.80;;;;;;5097547;28;20103;-68
2020/12/13 03:13:51;;;;;;;16.05;8.88;;;154.50;2150.40;;;;;;5097822;28;20023;-69
2020/12/13 03:16:18;;;;;;;11.93;7.45;;;154.40;2150.40;;;;;;5097168;28;20024;-68
2020/12/13 03:18:45;;;;;;;9.82;5.47;;;154.50;2150.40;;;;;;5097048;28;20353;-68
2020/12/13 03:21:10;;;;;;;9.90;5.10;;;179.30;2099.20;;;;;;5097145;28;20111;-68
2020/12/13 03:23:36;;;;;;;10.35;5.97;;;154.40;2124.80;;;;;;5097727;28;20103;-68
2020/12/13 03:26:02;;;;;;;9.63;5.15;;;154.40;2124.80;;;;;;5097384;28;20110;-69
2020/12/13 03:28:28;;;;;;;8.60;5.15;;;154.50;2124.80;;;;;;5097411;28;20031;-68
2020/12/13 03:30:54;;;;;;;10.02;6.43;;;154.50;2124.80;;;;;;5097082;28;20016;-67
2020/12/13 03:33:21;;;;;;;13.73;7.68;;;154.50;2124.80;;;;;;5097613;28;20028;-68
2020/12/13 03:35:47;;;;;;;14.55;8.80;;;154.50;2124.80;;;;;;5096895;28;20031;-68
2020/12/13 03:38:13;;;;;;;15.48;8.18;;;154.50;2150.40;;;;;;5096102;28;20035;-67
2020/12/13 03:40:39;;;;;;;17.00;9.35;;;154.40;2150.40;;;;;;5096265;28;20028;-68
2020/12/13 03:43:05;;;;;;;16.58;9.32;;;154.40;2150.40;;;;;;5096495;28;20066;-67
2020/12/13 03:45:30;;;;;;;20.60;10.25;;;154.40;2150.40;;;;;;5096976;28;20410;-69
2020/12/13 03:47:56;;;;;;;13.73;7.82;;;154.40;2150.40;;;;;;5097070;28;20431;-67
2020/12/13 03:50:22;;;;;;;14.77;8.38;;;154.30;2176.00;;;;;;5096861;28;20358;-67
2020/12/13 03:52:48;;;;;;;16.15;9.73;;;154.40;2150.40;;;;;;5097086;28;20024;-68
2020/12/13 03:55:13;;;;;;;13.88;7.93;;;154.30;2176.00;;;;;;5096684;28;20447;-68
2020/12/13 03:57:39;;;;;;;12.65;7.93;;;154.40;2176.00;;;;;;5096750;28;20335;-68
2020/12/13 04:00:06;;;;;;;13.00;8.07;;;154.40;2176.00;;;;;;5099055;28;20035;-69
2020/12/13 04:02:32;;;;;;;13.75;9.07;;;154.50;2176.00;;;;;;5101472;28;20027;-67
2020/12/13 04:04:57;;;;;;;14.82;8.85;;;154.20;2201.60;;;;;;5101184;28;20035;-68
2020/12/13 04:07:23;;;;;;;18.48;9.65;;;154.30;2201.60;;;;;;5100916;28;20111;-68
2020/12/13 04:09:49;;;;;;;18.23;9.32;;;154.40;2176.00;;;;;;5100491;28;20027;-68
2020/12/13 04:12:15;;;;;;;17.70;9.90;;;154.40;2176.00;;;;;;5099984;28;20023;-67
2020/12/13 04:14:40;;;;;;;19.02;11.13;;;154.40;2176.00;;;;;;5100372;28;20436;-68
2020/12/13 04:17:06;;;;;;;20.10;10.55;;;154.20;2176.00;;;;;;5099534;28;20027;-67
2020/12/13 04:19:32;;;;;;;17.58;10.13;;;154.20;2201.60;;;;;;5100188;28;20047;-68
2020/12/13 04:21:58;;;;;;;17.40;9.18;;;154.20;2201.60;;;;;;5100152;28;20336;-67
2020/12/13 04:24:24;;;;;;;15.93;10.48;;;154.20;2201.60;;;;;;5099547;28;20035;-67
2020/12/13 04:26:50;;;;;;;17.38;10.50;;;154.20;2201.60;;;;;;5099833;28;20106;-67
2020/12/13 04:29:16;;;;;;;21.13;12.45;;;154.00;2227.20;;;;;;5100719;28;20034;-68
2020/12/13 04:31:41;;;;;;;17.33;10.93;;;154.10;2227.20;;;;;;5100601;28;20107;-68
2020/12/13 04:34:07;;;;;;;19.00;11.85;;;154.20;2201.60;;;;;;5100369;28;20395;-69
2020/12/13 04:36:33;;;;;;;19.35;11.65;;;154.20;2201.60;;;;;;5099845;28;20469;-68
2020/12/13 04:38:59;;;;;;;17.67;10.90;;;154.30;2176.00;;;;;;5099941;28;20077;-67
2020/12/13 04:41:24;;;;;;;17.95;11.35;;;154.30;2176.00;;;;;;5100339;28;20087;-68
2020/12/13 04:43:50;;;;;;;18.23;10.65;;;154.30;2176.00;;;;;;5100387;28;20078;-67
2020/12/13 04:46:16;;;;;;;18.10;10.68;;;154.40;2176.00;;;;;;5099722;28;20024;-67
2020/12/13 04:48:42;;;;;;;19.77;11.85;;;154.50;2176.00;;;;;;5100272;28;20048;-68
2020/12/13 04:51:09;;;;;;;18.55;11.13;;;154.40;2176.00;;;;;;5099997;28;20024;-68
2020/12/13 04:53:38;;;;;;;22.33;12.27;;;154.20;2201.60;;;;;;5100248;28;20028;-68
2020/12/13 04:56:09;;;;;;;16.48;10.98;;;154.00;2227.20;;;;;;5099389;28;20024;-68
2020/12/13 04:58:35;;;;;;;18.42;11.65;;;153.90;2252.80;;;;;;5100251;28;20062;-67
2020/12/13 05:01:03;;;;;;;19.90;11.80;;;154.20;2201.60;;;;;;5099087;28;20031;-68
2020/12/13 05:03:29;;;;;;;21.02;11.57;;;154.20;2201.60;;;;;;5099270;28;20035;-67
2020/12/13 05:06:01;;;;;;;22.05;11.48;;;154.40;2176.00;;;;;;5098545;28;20027;-67
2020/12/13 05:08:28;;;;;;;23.05;13.02;;;154.50;2150.40;;;;;;5098797;28;20441;-68
2020/12/13 05:10:54;;;;;;;22.83;14.27;;;154.40;2176.00;;;;;;5098086;28;20031;-68
2020/12/13 05:13:20;;;;;;;25.55;14.75;;;154.40;2176.00;;;;;;5098615;28;20024;-68
2020/12/13 05:15:46;;;;;;;24.63;14.48;;;154.30;2176.00;;;;;;5099093;28;20034;-67
2020/12/13 05:18:12;;;;;;;22.90;13.98;;;154.20;2201.60;;;;;;5098990;28;20312;-69
2020/12/13 05:20:38;;;;;;;26.30;14.38;;;154.10;2201.60;;;;;;5098491;28;20032;-67
2020/12/13 05:23:04;;;;;;;27.38;14.32;;;154.00;2227.20;;;;;;5098957;28;20043;-68
2020/12/13 05:25:38;;;;;;;24.95;14.43;;;153.90;2227.20;;;;;;5098960;28;20027;-68
2020/12/13 05:28:09;;;;;;;23.05;14.73;;;153.90;2252.80;;;;;;5098070;28;20115;-68
2020/12/13 05:30:41;;;;;;;25.02;14.82;;;153.90;2252.80;;;;;;5098370;28;20024;-67
2020/12/13 05:33:35;;;;;;;27.90;16.30;;;153.90;2252.80;;;;;;5098863;28;20027;-67
2020/12/13 05:36:05;;;;;;;29.95;17.55;;;154.00;2252.80;;;;;;5098229;28;20024;-68
2020/12/13 05:38:33;;;;;;;29.30;17.55;;;154.00;2252.80;;;;;;5098630;28;20046;-68
2020/12/13 05:40:58;;;;;;;27.63;15.90;;;154.00;2252.80;;;;;;5097881;28;20112;-68
2020/12/13 05:43:27;;;;;;;24.15;14.63;;;154.00;2252.80;;;;;;5097956;28;20422;-68
2020/12/13 05:51:36;;;;;;;30.20;17.10;;;153.80;2252.80;;;;;;5035447;28;20417;-67
2020/12/13 05:54:05;;;;;;;28.67;16.95;;;153.70;2252.80;;;;;;5035590;28;20091;-68
2020/12/13 05:56:34;;;;;;;29.00;17.38;;;153.70;2252.80;;;;;;5035136;28;20037;-68
2020/12/13 05:59:00;;;;;;;27.77;16.80;;;153.60;2252.80;;;;;;5035096;28;20032;-68
2020/12/13 06:01:29;;;;;;;26.15;16.40;;;153.60;2252.80;;;;;;5035397;28;20065;-67
2020/12/13 07:02:59;;;;;;;41.38;24.17;;;128.20;2252.80;;;;;;5114569;27;20428;-67
2020/12/13 07:05:53;;;;;;;40.40;24.08;;;128.90;2252.80;;;;;;5031937;28;20042;-68
2020/12/13 07:08:21;;;;;;;50.92;25.83;;;128.80;2252.80;;;;;;5032114;28;20026;-69
2020/12/13 07:10:51;;;;;;;44.60;26.35;;;128.90;2252.80;;;;;;5032310;28;20379;-68
2020/12/13 07:13:22;;;;;;;47.25;28.35;;;128.90;2252.80;;;;;;5031772;28;20068;-69
2020/12/13 07:18:47;;;;;;;44.90;24.27;;;153.60;2252.80;;;;;;5031759;28;20413;-69
2020/12/13 07:21:15;;;;;;;44.75;24.80;;;153.60;2252.80;;;;;;5031573;28;20040;-68
2020/12/13 07:23:41;;;;;;;40.15;23.70;;;153.70;2252.80;;;;;;5032100;28;20026;-68
2020/12/13 07:26:07;;;;;;;43.85;24.08;;;153.70;2252.80;;;;;;5031537;28;20571;-69
2020/12/13 07:28:34;;;;;;;42.83;24.35;;;153.70;2252.80;;;;;;5032022;28;20034;-68
2020/12/13 07:31:03;;;;;;;46.15;25.05;;;153.80;2252.80;;;;;;5031326;28;20033;-68
2020/12/13 07:33:29;;;;;;;41.78;23.63;;;153.90;2252.80;;;;;;5031634;28;20036;-68
2020/12/13 07:35:57;;;;;;;47.53;26.08;;;153.90;2252.80;;;;;;5031466;28;20044;-67
2020/12/13 07:38:23;;;;;;;47.92;26.02;;;153.90;2252.80;;;;;;5031842;28;20025;-68
2020/12/13 07:40:49;;;;;;;49.20;26.85;;;153.90;2252.80;;;;;;5040030;28;20191;-68
2020/12/13 07:43:14;;;;;;;45.65;25.58;;;154.00;2252.80;;;;;;5114309;28;20026;-68
2020/12/13 07:45:40;;;;;;;44.63;25.05;;;154.00;2252.80;;;;;;5114396;28;20106;-69
2020/12/13 07:48:06;;;;;;;44.35;24.67;;;154.00;2252.80;;;;;;5114075;28;20436;-69
2020/12/13 07:50:48;;;;;;;36.03;21.02;;;154.00;2252.80;;;;;;5114248;28;20028;-68
2020/12/13 07:53:24;;;;;;;33.67;20.10;;;154.00;2252.80;;;;;;5096335;28;20032;-68
2020/12/13 07:55:50;;;;;;;33.40;18.50;;;154.00;2252.80;;;;;;5113640;28;20375;-68
2020/12/13 07:58:20;;;;;;;31.83;17.38;;;153.90;2252.80;;;;;;5113905;28;20034;-68
2020/12/13 08:00:46;;;;;;;33.85;18.20;;;153.90;2252.80;;;;;;5113018;28;20039;-69
2020/12/13 08:03:12;;;;;;;36.65;19.80;;;153.80;2252.80;;;;;;5101148;28;20028;-68
2020/12/13 08:05:41;;;;;;;38.97;19.67;;;153.70;2252.80;;;;;;5100471;28;20080;-68
2020/12/13 08:08:07;;;;;;;;;;;153.70;2252.80;;;;;;5099979;28;20032;-70
2020/12/13 08:10:33;;;;;;;28.42;16.20;;;153.80;2252.80;;;;;;5100301;28;19915;-68
2020/12/13 08:13:00;;;;;;;30.98;15.40;;;153.80;2252.80;;;;;;5099422;28;20031;-69
2020/12/13 08:15:26;;;;;;;27.15;15.82;;;153.80;2252.80;;;;;;5099702;28;20403;-69
2020/12/13 08:18:07;;;;;;;35.60;19.02;;;153.90;2252.80;;;;;;5099669;28;20127;-69
2020/12/13 08:20:45;;;;;;;25.83;14.48;;;153.90;2252.80;;;;;;5081724;28;20027;-68
2020/12/13 08:23:13;;;;;;;34.10;16.95;;;153.90;2252.80;;;;;;5099953;28;20321;-68
2020/12/13 08:25:40;;;;;;;31.83;15.18;;;153.90;2252.80;;;;;;5099707;28;20077;-69
2020/12/13 08:28:06;;;;;;;25.13;14.68;;;153.80;2252.80;;;;;;5099526;28;20311;-70
2020/12/13 08:30:33;;;;;;;27.05;15.07;;;153.90;2252.80;;;;;;5093912;28;20342;-69
2020/12/13 08:33:01;;;;;;;22.88;12.00;;;154.00;2252.80;;;;;;5084613;28;20036;-69
2020/12/13 08:35:28;;;;;;;20.52;10.93;;;154.00;2252.80;;;;;;5080750;28;20020;-68
2020/12/13 08:37:56;;;;;;;18.02;10.38;;;153.90;2252.80;;;;;;5097551;28;20325;-69
2020/12/13 08:40:45;;;;;;;18.23;10.68;;;154.00;2252.80;;;;;;5098165;28;20028;-68
2020/12/13 08:43:20;;;;;;;16.70;9.57;;;154.00;2252.80;;;;;;5087523;28;20047;-68
2020/12/13 08:45:54;;;;;;;20.38;11.32;;;154.00;2252.80;;;;;;5098056;28;20063;-69
2020/12/13 08:48:30;;;;;;;25.15;13.95;;;153.90;2252.80;;;;;;5095481;28;20027;-70
2020/12/13 08:51:08;;;;;;;23.98;13.02;;;154.00;2252.80;;;;;;5098299;28;20482;-68
2020/12/13 08:53:35;;;;;;;23.20;13.38;;;154.00;2252.80;;;;;;5097755;28;20032;-68
2020/12/13 08:56:09;;;;;;;25.75;14.20;;;154.10;2252.80;;;;;;5097606;28;20024;-68
2020/12/13 08:58:51;;;;;;;26.65;15.05;;;154.10;2252.80;;;;;;5077735;28;20157;-67
2020/12/13 09:01:19;;;;;;;24.25;14.68;;;154.20;2252.80;;;;;;5076519;28;20036;-68
2020/12/13 09:03:45;;;;;;;26.67;14.73;;;154.20;2252.80;;;;;;5079032;28;20480;-69
2020/12/13 09:06:11;;;;;;;23.50;13.77;;;154.10;2252.80;;;;;;5075289;28;20078;-68
2020/12/13 09:08:37;;;;;;;21.70;13.30;;;154.10;2252.80;;;;;;5086951;28;20031;-69
2020/12/13 09:11:07;;;;;;;23.55;14.10;;;154.10;2252.80;;;;;;5091504;28;20031;-68
2020/12/13 09:13:33;;;;;;;26.35;14.25;;;154.00;2252.80;;;;;;5086062;28;20024;-69
2020/12/13 09:15:59;;;;;;;23.38;13.25;;;154.10;2252.80;;;;;;5078246;28;20028;-68
2020/12/13 09:18:25;;;;;;;23.85;12.90;;;154.10;2252.80;;;;;;5076699;28;20091;-69
2020/12/13 09:20:58;;;;;;;19.30;11.52;;;154.10;2252.80;;;;;;5080106;28;20747;-67
2020/12/13 09:23:25;;;;;;;21.92;11.88;;;154.20;2252.80;;;;;;5095939;28;20024;-68
2020/12/13 09:25:54;;;;;;;20.17;11.68;;;154.30;2252.80;;;;;;5092933;28;20402;-70
2020/12/13 09:28:20;;;;;;;19.02;12.02;;;154.30;2252.80;;;;;;5087814;28;20026;-70
2020/12/13 09:30:47;;;;;;;24.00;11.90;;;154.20;2252.80;;;;;;5085313;28;20115;-70
2020/12/13 09:33:15;;;;;;;21.27;12.75;;;154.30;2252.80;;;;;;5093440;28;20043;-70
2020/12/13 09:35:41;;;;;;;21.85;12.00;;;154.20;2252.80;;;;;;5084842;28;20039;-70
2020/12/13 09:38:09;;;;;;;20.08;11.23;;;154.20;2252.80;;;;;;5081351;28;20612;-69
2020/12/13 09:40:35;;;;;;;25.55;14.10;;;154.20;2252.80;;;;;;5096387;28;20034;-69
2020/12/13 09:43:07;;;;;;;30.77;16.58;;;154.20;2252.80;;;;;;5096929;28;20081;-71
2020/12/13 09:45:33;;;;;;;25.52;12.65;;;154.20;2252.80;;;;;;5095210;28;20058;-70
2020/12/13 09:47:59;;;;;;;29.95;14.32;;;154.00;2252.80;;;;;;5090267;28;20062;-69
2020/12/13 09:50:26;;;;;;;23.50;13.40;;;154.00;2252.80;;;;;;5093981;28;20028;-69
2020/12/13 09:52:53;;;;;;;20.73;12.80;;;154.00;2252.80;;;;;;5094622;28;20111;-69
2020/12/13 09:55:19;;;;;;;22.25;11.30;;;153.90;2252.80;;;;;;5093602;28;20023;-69
2020/12/13 09:57:46;;;;;;;21.63;11.45;;;154.00;2252.80;;;;;;5092634;28;20111;-71
2020/12/13 10:00:12;;;;;;;21.63;12.32;;;153.90;2252.80;;;;;;5304884;22;22295;-73
2020/12/13 10:02:39;;;;;;;22.80;12.02;;;153.80;2252.80;;;;;;5105713;28;20051;-70
2020/12/13 10:05:07;;;;;;;31.20;14.93;;;153.80;2252.80;;;;;;5100880;28;20032;-71
2020/12/13 10:09:00;;;;;;;25.65;13.05;;;153.80;2252.80;;;;;;5105986;28;20020;-70
2020/12/13 10:10:19;;;;;;;21.83;12.48;;;153.80;2252.80;;;;;;5105819;28;20027;-72
2020/12/13 10:12:45;;;;;;;23.75;11.38;;;153.80;2252.80;;;;;;5108733;28;20110;-71
2020/12/13 10:15:11;;;;;;;23.38;12.02;;;153.70;2252.80;;;;;;5111778;28;20106;-70
2020/12/13 10:17:40;;;;;;;21.83;11.63;;;153.70;2252.80;;;;;;5105978;28;20028;-70
2020/12/13 10:20:06;;;;;;;28.00;12.70;;;153.70;2252.80;;;;;;5104349;28;20106;-71
2020/12/13 10:22:32;;;;;;;31.33;14.57;;;153.70;2252.80;;;;;;5097630;28;20028;-72
2020/12/13 10:24:58;;;;;;;25.95;12.82;;;153.60;2252.80;;;;;;5101363;28;20024;-71
2020/12/13 10:27:23;;;;;;;30.42;17.00;;;153.80;2252.80;;;;;;5097644;28;20026;-71
2020/12/13 10:29:49;;;;;;;35.15;18.55;;;153.80;2252.80;;;;;;5096858;28;20032;-73
2020/12/13 10:32:15;;;;;;;27.20;13.55;;;153.80;2252.80;;;;;;5097205;28;20024;-70
2020/12/13 10:34:41;;;;;;;52.17;27.20;;;153.90;2252.80;;;;;;5095985;28;20501;-69
2020/12/13 10:37:06;;;;;;;23.45;12.68;;;153.80;2252.80;;;;;;5104427;28;20027;-72
2020/12/13 10:39:32;;;;;;;20.13;10.88;;;153.90;2252.80;;;;;;5114351;28;20058;-69
2020/12/13 10:41:58;;;;;;;18.65;11.55;;;154.00;2252.80;;;;;;5097200;28;20028;-68
2020/12/13 10:44:24;;;;;;;17.20;8.68;;;154.00;2252.80;;;;;;5096432;28;20024;-69
2020/12/13 10:46:49;;;;;;;22.30;12.57;;;153.90;2252.80;;;;;;5096228;28;20028;-70
2020/12/13 10:49:15;;;;;;;16.77;10.23;;;153.90;2252.80;;;;;;5096815;28;20039;-70
2020/12/13 10:51:41;;;;;;;16.95;9.18;;;153.90;2252.80;;;;;;5096521;28;20031;-71
2020/12/13 10:54:08;;;;;;;15.60;8.73;;;153.80;2252.80;;;;;;5107234;28;20028;-71
2020/12/13 10:56:35;;;;;;;15.40;9.00;;;153.80;2252.80;;;;;;5104530;28;20024;-69
2020/12/13 10:59:01;;;;;;;18.55;10.15;;;153.80;2252.80;;;;;;5095685;28;20028;-68
2020/12/13 11:01:27;;;;;;;21.10;11.63;;;153.80;2252.80;;;;;;5099683;28;20054;-69
2020/12/13 11:03:53;;;;;;;16.23;8.45;;;153.70;2252.80;;;;;;5099185;28;20032;-70
2020/12/13 11:06:18;;;;;;;21.58;12.77;;;128.90;2252.80;;;;;;5095213;28;20024;-69
2020/12/13 11:08:44;;;;;;;18.73;11.02;;;128.90;2252.80;;;;;;5100402;28;20039;-71
2020/12/13 11:11:10;;;;;;;18.05;10.98;;;128.90;2252.80;;;;;;5114959;28;20393;-69
2020/12/13 11:13:36;;;;;;;19.40;10.68;;;128.80;2252.80;;;;;;5116137;28;20035;-69
2020/12/13 11:16:02;;;;;;;17.90;10.23;;;128.70;2252.80;;;;;;5116748;28;20030;-69
2020/12/13 11:18:30;;;;;;;20.58;10.25;;;128.60;2252.80;;;;;;5115379;28;20024;-70
2020/12/13 11:20:59;;;;;;;19.45;10.57;;;128.60;2252.80;;;;;;5116732;28;20051;-70
2020/12/13 11:23:25;;;;;;;19.52;10.38;;;128.60;2252.80;;;;;;5115874;28;20028;-71
2020/12/13 11:25:51;;;;;;;18.10;9.93;;;128.50;2252.80;;;;;;5114466;28;20111;-69
2020/12/13 11:28:23;;;;;;;20.58;11.25;;;128.50;2252.80;;;;;;5116056;28;20028;-72
2020/12/13 11:30:48;;;;;;;18.05;10.43;;;128.50;2252.80;;;;;;5115576;28;20303;-69
2020/12/13 11:33:14;;;;;;;20.90;11.40;;;128.50;2252.80;;;;;;5115685;28;20036;-70
2020/12/13 11:35:40;;;;;;;18.70;10.30;;;128.50;2252.80;;;;;;5116006;28;20027;-68
2020/12/13 11:38:06;;;;;;;25.05;12.10;;;128.40;2252.80;;;;;;5118790;28;20034;-72
2020/12/13 11:40:32;;;;;;;20.15;10.93;;;128.40;2252.80;;;;;;5119865;28;20031;-69
2020/12/13 11:43:00;;;;;;;24.23;11.98;;;128.40;2252.80;;;;;;5117629;28;20034;-67
2020/12/13 11:45:25;;;;;;;22.45;11.80;;;128.40;2252.80;;;;;;5112124;28;20024;-68
2020/12/13 11:47:51;;;;;;;24.30;11.75;;;128.40;2252.80;;;;;;5115902;28;20023;-68
2020/12/13 11:50:17;;;;;;;29.85;13.93;;;128.40;2252.80;;;;;;5120304;28;20027;-68
2020/12/13 11:52:43;;;;;;;38.90;18.73;;;128.50;2252.80;;;;;;5119241;28;20104;-69
2020/12/13 11:55:09;;;;;;;50.53;23.67;;;128.50;2252.80;;;;;;5104682;28;20411;-68
2020/12/13 11:57:35;;;;;;;36.55;17.55;;;128.50;2252.80;;;;;;5119454;28;20023;-68
2020/12/13 12:00:00;;;;;;;38.50;20.52;;;128.50;2252.80;;;;;;5117732;28;20031;-69
2020/12/13 12:02:26;;;;;;;67.10;33.85;;;128.50;2252.80;;;;;;5099609;28;20052;-68
2020/12/13 12:04:52;;;;;;;41.20;20.40;;;128.70;2252.80;;;;;;5104363;28;20456;-69
2020/12/13 12:07:18;;;;;;;34.33;14.50;;;128.70;2252.80;;;;;;5099141;28;20046;-69
2020/12/13 12:09:44;;;;;;;29.83;14.90;;;128.90;2252.80;;;;;;5104917;28;20102;-67
2020/12/13 12:12:10;;;;;;;52.80;28.92;;;128.90;2252.80;;;;;;5098968;28;20478;-70
2020/12/13 12:14:36;;;;;;;34.50;16.75;;;153.60;2252.80;;;;;;5098599;28;20048;-70
2020/12/13 12:17:03;;;;;;;31.05;14.57;;;153.60;2252.80;;;;;;5099114;28;20396;-69
2020/12/13 12:19:29;;;;;;;38.25;17.60;;;128.90;2252.80;;;;;;5108183;28;20068;-70
2020/12/13 12:21:55;;;;;;;41.38;16.98;;;128.80;2252.80;;;;;;5116649;28;20035;-70
2020/12/13 12:24:21;;;;;;;47.08;17.35;;;128.70;2252.80;;;;;;5117935;28;20020;-68
2020/12/13 12:26:54;;;;;;;39.58;18.40;;;128.60;2252.80;;;;;;5105451;28;20027;-68
2020/12/13 12:29:20;;;;;;;41.83;17.77;;;128.70;2252.80;;;;;;5103826;28;20221;-68
2020/12/13 12:31:50;;;;;;;45.20;18.67;;;128.60;2252.80;;;;;;5110134;28;20030;-68
2020/12/13 12:34:16;;;;;;;39.08;18.55;;;128.70;2252.80;;;;;;5118430;28;20063;-68
2020/12/13 12:36:42;;;;;;;45.75;20.80;;;128.70;2252.80;;;;;;5119559;28;20027;-68
2020/12/13 12:39:08;;;;;;;44.47;19.70;;;128.60;2252.80;;;;;;5119658;28;20479;-70
2020/12/13 12:41:34;;;;;;;38.20;17.30;;;128.70;2252.80;;;;;;5119528;28;20027;-69
2020/12/13 12:44:01;;;;;;;38.08;19.80;;;128.70;2252.80;;;;;;5118644;28;20223;-69
2020/12/13 12:46:26;;;;;;;49.13;25.88;;;128.70;2252.80;;;;;;5107521;28;20020;-69
2020/12/13 12:48:52;;;;;;;41.03;18.45;;;128.90;2252.80;;;;;;5107635;28;20023;-71
2020/12/13 12:51:19;;;;;;;49.67;19.75;;;128.90;2252.80;;;;;;5106712;28;20032;-70
2020/12/13 12:53:46;;;;;;;42.65;19.88;;;153.60;2252.80;;;;;;5108140;28;20034;-65
2020/12/13 12:56:13;;;;;;;37.03;16.92;;;153.60;2252.80;;;;;;5108362;28;20029;-68
2020/12/13 13:01:21;;;;;;;42.17;19.23;;;128.80;2252.80;;;;;;5104070;28;20063;-70
2020/12/13 13:03:51;;;;;;;41.92;17.90;;;128.80;2252.80;;;;;;5077543;28;20032;-71
2020/12/13 13:09:15;;;;;;;41.60;19.35;;;128.70;2252.80;;;;;;5078213;28;20111;-70
2020/12/13 13:11:37;;;;;;;38.00;18.30;;;128.80;2252.80;;;;;;5077044;28;20032;-71
2020/12/13 13:14:04;;;;;;;42.00;19.35;;;128.70;2252.80;;;;;;5077229;28;20039;-71
2020/12/13 13:16:31;;;;;;;37.13;17.27;;;128.70;2252.80;;;;;;5077888;28;20505;-71
2020/12/13 13:19:01;;;;;;;37.15;17.88;;;128.70;2252.80;;;;;;5077747;28;20089;-71